Time;durP1;ratioP1;P1;durP2;ratioP2;P2;SDS_P1;SDS_P2;PMS_P1;PMS_P2;Temp;Humidity;BMP_temperature;BMP_pressure;BME280_temperature;BME280_humidity;BME280_pressure;Samples;Min_cycle;Max_cycle;Signal;HPM_P1;HPM_P2
2022/01/17 00:01:08;;;;;;;30.53;16.80;;;6.00;99.90;;;;;;5059668;28;20436;-69
2022/01/17 00:03:34;;;;;;;32.37;18.60;;;6.00;99.90;;;;;;5055578;28;20174;-69
2022/01/17 00:06:00;;;;;;;30.60;18.83;;;5.90;99.90;;;;;;5075134;28;20423;-69
2022/01/17 00:08:26;;;;;;;36.20;20.70;;;5.80;99.90;;;;;;5075374;28;20412;-71
2022/01/17 00:10:52;;;;;;;35.53;18.90;;;5.90;99.90;;;;;;5074880;28;20423;-69
2022/01/17 00:13:24;;;;;;;34.27;19.27;;;5.80;99.90;;;;;;5056900;28;20264;-69
2022/01/17 00:15:56;;;;;;;32.20;19.40;;;5.90;99.90;;;;;;5073613;28;20708;-69
2022/01/17 00:20:47;;;;;;;34.40;20.80;;;5.90;99.90;;;;;;5074945;28;20418;-69
2022/01/17 00:23:16;;;;;;;30.37;18.53;;;5.70;99.90;;;;;;5075221;28;20193;-70
2022/01/17 00:25:42;;;;;;;35.03;19.93;;;5.60;99.90;;;;;;5073000;28;20261;-69
2022/01/17 00:28:08;;;;;;;38.97;21.13;;;5.70;99.90;;;;;;5074310;28;20454;-70
2022/01/17 00:30:33;;;;;;;33.13;19.43;;;5.70;99.90;;;;;;5074743;28;20170;-69
2022/01/17 00:32:58;;;;;;;34.30;20.57;;;5.80;99.90;;;;;;5074590;28;20666;-69
2022/01/17 00:35:25;;;;;;;35.80;19.27;;;5.70;99.90;;;;;;5074858;28;20212;-69
2022/01/17 00:37:51;;;;;;;36.60;19.87;;;5.80;99.90;;;;;;5073103;28;20170;-69
2022/01/17 00:40:18;;;;;;;31.97;19.50;;;5.70;99.90;;;;;;5060876;28;20416;-69
2022/01/17 00:42:44;;;;;;;35.87;21.43;;;5.70;99.90;;;;;;5054694;28;20917;-69
2022/01/17 00:45:13;;;;;;;34.57;19.63;;;5.70;99.90;;;;;;5054112;28;20415;-70
2022/01/17 00:47:39;;;;;;;33.50;18.83;;;5.60;99.90;;;;;;5054246;28;20167;-69
2022/01/17 00:50:06;;;;;;;34.07;20.20;;;5.70;99.90;;;;;;5055703;28;20413;-70
2022/01/17 00:52:31;;;;;;;33.10;19.53;;;5.70;99.90;;;;;;5054175;28;20862;-70
2022/01/17 00:54:57;;;;;;;28.80;17.47;;;5.70;99.90;;;;;;5054353;28;20435;-70
2022/01/17 00:57:23;;;;;;;37.00;21.60;;;5.80;99.90;;;;;;5053933;28;20510;-69
2022/01/17 00:59:48;;;;;;;40.87;22.50;;;5.80;99.90;;;;;;5054911;28;20178;-70
2022/01/17 01:02:14;;;;;;;40.03;21.00;;;5.80;99.90;;;;;;5054300;28;20260;-69
2022/01/17 01:04:39;;;;;;;34.67;20.40;;;5.70;99.90;;;;;;5054244;28;20606;-70
2022/01/17 01:07:05;;;;;;;36.93;22.47;;;5.60;99.90;;;;;;5053568;28;20167;-68
2022/01/17 01:09:37;;;;;;;41.27;23.57;;;5.70;99.90;;;;;;5053955;28;20178;-69
2022/01/17 01:12:03;;;;;;;34.07;19.80;;;5.80;99.90;;;;;;5054174;28;20206;-70
2022/01/17 01:14:30;;;;;;;38.97;21.27;;;5.80;99.90;;;;;;5035637;28;20978;-69
2022/01/17 01:16:57;;;;;;;38.17;22.10;;;5.90;99.90;;;;;;5053325;28;20438;-68
2022/01/17 01:30:07;;;;;;;39.40;21.47;;;5.90;99.90;;;;;;5053790;28;21000;-70
2022/01/17 01:32:40;;;;;;;41.00;21.53;;;5.90;99.90;;;;;;5054116;28;20534;-69
2022/01/17 01:35:10;;;;;;;38.73;21.23;;;6.00;99.90;;;;;;5052941;28;20438;-69
2022/01/17 01:37:35;;;;;;;36.07;20.73;;;6.10;99.90;;;;;;5048766;28;20435;-69
2022/01/17 01:40:01;;;;;;;36.03;21.50;;;6.00;99.90;;;;;;5052802;28;20416;-70
2022/01/17 01:42:29;;;;;;;39.87;20.30;;;6.00;99.90;;;;;;5053819;28;20197;-69
2022/01/17 01:44:55;;;;;;;36.77;22.30;;;6.00;99.90;;;;;;5015277;28;20171;-69
2022/01/17 01:47:26;;;;;;;37.13;22.63;;;5.90;99.90;;;;;;5015265;28;20467;-69
2022/01/17 01:49:51;;;;;;;39.73;22.10;;;5.90;99.90;;;;;;5033252;28;20174;-69
2022/01/17 01:52:17;;;;;;;41.03;23.40;;;5.90;99.90;;;;;;5076233;22;20875;-67
2022/01/17 01:54:43;;;;;;;43.77;22.80;;;5.80;99.90;;;;;;5083213;28;20169;-68
2022/01/17 01:57:09;;;;;;;44.13;23.30;;;5.80;99.90;;;;;;5091980;28;20418;-67
2022/01/17 01:59:37;;;;;;;40.37;21.50;;;5.90;99.90;;;;;;5092140;28;20173;-68
2022/01/17 02:02:03;;;;;;;41.97;22.20;;;5.90;99.90;;;;;;5065560;28;20459;-69
2022/01/17 02:04:29;;;;;;;42.60;23.70;;;6.00;99.90;;;;;;5073206;28;20804;-70
2022/01/17 02:06:55;;;;;;;52.53;24.47;;;6.00;99.90;;;;;;5071758;28;20412;-68
2022/01/17 02:09:23;;;;;;;44.67;23.40;;;6.00;99.90;;;;;;5072085;28;20396;-69
2022/01/17 02:11:49;;;;;;;41.23;24.97;;;6.10;99.90;;;;;;5072000;28;20212;-69
2022/01/17 02:14:15;;;;;;;46.43;23.83;;;6.20;99.90;;;;;;5071910;28;20404;-69
2022/01/17 02:16:43;;;;;;;45.30;24.67;;;6.20;99.90;;;;;;5072030;28;20490;-68
2022/01/17 02:19:08;;;;;;;45.70;26.77;;;6.10;99.90;;;;;;5072136;28;20180;-69
2022/01/17 02:21:45;;;;;;;48.60;27.10;;;6.10;99.90;;;;;;5071101;28;20967;-68
2022/01/17 02:24:16;;;;;;;47.90;27.30;;;6.10;99.90;;;;;;5071799;28;20634;-69
2022/01/17 02:26:43;;;;;;;47.73;24.83;;;6.10;99.90;;;;;;5072931;28;20416;-68
2022/01/17 02:29:09;;;;;;;49.00;26.37;;;6.10;99.90;;;;;;5071780;28;20416;-68
2022/01/17 02:31:35;;;;;;;48.73;26.73;;;6.10;99.90;;;;;;5071355;28;20512;-68
2022/01/17 02:34:03;;;;;;;50.20;28.07;;;6.10;99.90;;;;;;5071717;28;20457;-69
2022/01/17 02:36:28;;;;;;;49.43;27.53;;;6.10;99.90;;;;;;5072386;28;20459;-68
2022/01/17 02:38:54;;;;;;;53.77;27.90;;;6.10;99.90;;;;;;5072581;28;20515;-69
2022/01/17 02:41:19;;;;;;;50.00;25.40;;;6.10;99.90;;;;;;5071600;28;20208;-69
2022/01/17 02:43:47;;;;;;;48.00;27.30;;;6.10;99.90;;;;;;5071639;28;20169;-69
2022/01/17 02:48:39;;;;;;;46.80;25.97;;;6.20;99.90;;;;;;5071631;28;20404;-70
2022/01/17 02:51:05;;;;;;;60.93;27.83;;;6.20;99.90;;;;;;5072286;28;20455;-69
2022/01/17 02:53:31;;;;;;;48.37;27.03;;;6.20;99.90;;;;;;5071309;28;20415;-69
2022/01/17 02:55:59;;;;;;;49.70;26.60;;;6.20;99.90;;;;;;5071349;28;20193;-69
2022/01/17 02:58:27;;;;;;;50.17;26.23;;;6.20;99.90;;;;;;5071385;28;20449;-69
2022/01/17 03:00:56;;;;;;;50.93;26.63;;;6.20;99.90;;;;;;5054685;28;20542;-69
2022/01/17 03:03:24;;;;;;;51.77;27.17;;;6.30;99.90;;;;;;5071396;28;20960;-70
2022/01/17 03:05:49;;;;;;;46.20;25.43;;;6.20;99.90;;;;;;5070759;28;20503;-69
2022/01/17 03:08:16;;;;;;;54.33;27.27;;;6.30;99.90;;;;;;5056264;28;20494;-69
2022/01/17 03:10:43;;;;;;;52.47;26.40;;;6.20;99.90;;;;;;5076450;28;20173;-69
2022/01/17 03:13:13;;;;;;;48.47;24.70;;;6.10;99.90;;;;;;5091809;28;20443;-69
2022/01/17 03:15:40;;;;;;;41.13;24.40;;;6.10;99.90;;;;;;5095109;28;20434;-70
2022/01/17 03:18:06;;;;;;;49.83;27.73;;;6.20;99.90;;;;;;5095363;28;20482;-69
2022/01/17 03:20:34;;;;;;;43.57;24.13;;;6.10;99.90;;;;;;5095137;28;20502;-69
2022/01/17 03:23:00;;;;;;;48.47;25.90;;;6.10;99.90;;;;;;5093641;28;20449;-69
2022/01/17 03:25:26;;;;;;;45.50;25.60;;;6.20;99.90;;;;;;5095464;28;20414;-68
2022/01/17 03:27:51;;;;;;;46.83;25.07;;;6.20;99.90;;;;;;5095284;28;20422;-68
2022/01/17 03:30:17;;;;;;;45.23;25.97;;;6.20;99.90;;;;;;5095258;28;20218;-69
2022/01/17 03:32:43;;;;;;;48.67;27.40;;;6.30;99.90;;;;;;5093374;28;20271;-69
2022/01/17 03:35:09;;;;;;;47.77;25.20;;;6.30;99.90;;;;;;5095334;28;20176;-70
2022/01/17 03:37:34;;;;;;;49.23;26.87;;;6.40;99.90;;;;;;5075808;28;20162;-69
2022/01/17 03:40:00;;;;;;;50.97;26.00;;;6.40;99.90;;;;;;5074865;28;20410;-69
2022/01/17 03:42:25;;;;;;;47.17;25.57;;;6.30;99.90;;;;;;5047513;28;20813;-69
2022/01/17 03:44:51;;;;;;;54.63;28.10;;;6.30;99.90;;;;;;5075597;28;20327;-69
2022/01/17 03:47:17;;;;;;;51.70;28.87;;;6.40;99.90;;;;;;5074370;28;20169;-69
2022/01/17 03:49:43;;;;;;;48.73;29.13;;;6.30;99.90;;;;;;5074532;28;20927;-68
2022/01/17 03:52:09;;;;;;;46.17;25.50;;;6.10;99.90;;;;;;5074312;28;20463;-69
2022/01/17 03:54:35;;;;;;;50.33;27.60;;;6.10;99.90;;;;;;5075753;28;20520;-68
2022/01/17 03:57:01;;;;;;;47.27;27.47;;;6.10;99.90;;;;;;5074291;28;20170;-70
2022/01/17 03:59:27;;;;;;;48.83;28.00;;;6.10;99.90;;;;;;5074483;28;20177;-68
2022/01/17 04:01:52;;;;;;;51.30;27.77;;;6.10;99.90;;;;;;5074313;28;20427;-69
2022/01/17 04:04:18;;;;;;;54.90;27.47;;;6.10;99.90;;;;;;5075728;28;20180;-69
2022/01/17 04:06:44;;;;;;;45.90;27.23;;;6.20;99.90;;;;;;5073951;28;20169;-69
2022/01/17 04:09:10;;;;;;;47.10;27.20;;;6.30;99.90;;;;;;5074699;28;20223;-68
2022/01/17 04:11:36;;;;;;;43.77;24.63;;;6.30;99.90;;;;;;5074131;28;20211;-69
2022/01/17 04:14:02;;;;;;;53.57;25.60;;;6.40;99.90;;;;;;5074007;28;20435;-68
2022/01/17 04:16:28;;;;;;;45.40;24.70;;;6.40;99.90;;;;;;5074975;28;20419;-69
2022/01/17 04:18:54;;;;;;;44.43;26.53;;;6.40;99.90;;;;;;5073964;28;20415;-69
2022/01/17 04:21:20;;;;;;;49.80;27.33;;;6.40;99.90;;;;;;5073649;28;20185;-69
2022/01/17 04:23:46;;;;;;;48.80;26.70;;;6.40;99.90;;;;;;5073838;28;20411;-68
2022/01/17 04:26:12;;;;;;;46.40;26.83;;;6.40;99.90;;;;;;5074942;28;20193;-68
2022/01/17 04:28:37;;;;;;;52.93;25.10;;;6.40;99.90;;;;;;5073935;28;20403;-69
2022/01/17 04:31:03;;;;;;;42.80;24.47;;;6.40;99.90;;;;;;5073923;28;20179;-69
2022/01/17 04:33:29;;;;;;;50.17;25.47;;;6.40;99.90;;;;;;5073869;28;20686;-69
2022/01/17 04:35:54;;;;;;;42.70;25.63;;;6.40;99.90;;;;;;5074775;28;20242;-68
2022/01/17 04:38:20;;;;;;;43.00;23.87;;;6.40;99.90;;;;;;5073742;28;20234;-68
2022/01/17 04:40:48;;;;;;;48.77;25.90;;;6.30;99.90;;;;;;5065230;28;20660;-69
2022/01/17 04:43:55;;;;;;;50.70;26.80;;;6.20;99.90;;;;;;5071419;28;20189;-69
2022/01/17 04:46:01;;;;;;;47.27;24.97;;;6.20;99.90;;;;;;5071718;28;20416;-69
2022/01/17 04:48:27;;;;;;;44.10;25.53;;;6.30;99.90;;;;;;5069386;28;20988;-68
2022/01/17 04:50:53;;;;;;;51.43;24.90;;;6.20;99.90;;;;;;5070847;28;20182;-68
2022/01/17 04:53:20;;;;;;;44.03;23.43;;;6.10;99.90;;;;;;5054145;28;20300;-70
2022/01/17 04:55:47;;;;;;;43.03;23.93;;;6.00;99.90;;;;;;5067369;28;20638;-69
2022/01/17 04:58:13;;;;;;;48.77;24.47;;;6.00;99.90;;;;;;5062820;28;20444;-68
2022/01/17 05:00:46;;;;;;;44.80;22.67;;;5.90;99.90;;;;;;5070301;28;20419;-69
2022/01/17 05:03:23;;;;;;;43.13;23.13;;;5.90;99.90;;;;;;5073128;28;20497;-70
2022/01/17 05:05:49;;;;;;;42.10;23.13;;;6.00;99.90;;;;;;5073073;28;20533;-70
2022/01/17 05:08:16;;;;;;;40.67;23.70;;;6.10;99.90;;;;;;5069366;28;20984;-70
2022/01/17 05:10:46;;;;;;;42.57;22.90;;;6.10;99.90;;;;;;5068191;28;20439;-70
2022/01/17 05:13:18;;;;;;;53.43;24.93;;;6.00;99.90;;;;;;5070136;28;20467;-69
2022/01/17 05:15:49;;;;;;;42.83;22.77;;;6.00;99.90;;;;;;5067090;28;20492;-69
2022/01/17 05:19:47;;;;;;;41.87;23.43;;;6.00;99.90;;;;;;5069735;28;20423;-71
2022/01/17 05:21:09;;;;;;;44.30;21.70;;;6.00;99.90;;;;;;5065896;28;20516;-70
2022/01/17 05:23:35;;;;;;;41.93;21.10;;;6.00;99.90;;;;;;5072903;28;20499;-70
2022/01/17 05:26:01;;;;;;;42.80;24.03;;;5.90;99.90;;;;;;5066175;28;20491;-71
2022/01/17 05:28:27;;;;;;;43.10;23.00;;;5.90;99.90;;;;;;5072655;28;20177;-71
2022/01/17 05:30:52;;;;;;;36.50;21.43;;;5.90;99.90;;;;;;5071976;28;20404;-69
2022/01/17 05:33:18;;;;;;;44.93;22.23;;;5.80;99.90;;;;;;5073411;28;20247;-69
2022/01/17 05:35:44;;;;;;;40.77;21.80;;;5.90;99.90;;;;;;5071501;28;20438;-70
2022/01/17 05:38:09;;;;;;;43.60;21.30;;;5.90;99.90;;;;;;5072752;28;20765;-70
2022/01/17 05:40:35;;;;;;;38.30;22.50;;;6.00;99.90;;;;;;5072381;28;20177;-70
2022/01/17 05:43:00;;;;;;;37.57;21.33;;;6.00;99.90;;;;;;5073685;28;20254;-69
2022/01/17 05:45:26;;;;;;;40.13;20.70;;;6.00;99.90;;;;;;5072677;28;20182;-68
2022/01/17 05:47:51;;;;;;;38.63;21.07;;;6.00;99.90;;;;;;5072317;28;20182;-71
2022/01/17 05:50:17;;;;;;;33.33;19.83;;;6.00;99.90;;;;;;5072474;28;20693;-69
2022/01/17 05:52:43;;;;;;;37.10;20.70;;;5.90;99.90;;;;;;5072045;28;20214;-70
2022/01/17 05:55:12;;;;;;;41.13;22.03;;;6.00;99.90;;;;;;5073104;28;20669;-69
2022/01/17 05:57:38;;;;;;;43.70;21.50;;;6.00;99.90;;;;;;5072022;28;20408;-71
2022/01/17 06:00:06;;;;;;;48.67;21.40;;;6.00;99.90;;;;;;5072218;28;20717;-70
2022/01/17 06:02:32;;;;;;;42.80;22.70;;;6.10;99.90;;;;;;5072122;28;20435;-69
2022/01/17 06:04:57;;;;;;;34.03;21.93;;;6.00;99.90;;;;;;5073201;28;20427;-70
2022/01/17 06:07:23;;;;;;;47.73;24.27;;;6.10;99.90;;;;;;5071652;28;20732;-70
2022/01/17 06:09:48;;;;;;;35.10;23.20;;;6.00;99.90;;;;;;5072112;28;20201;-70
2022/01/17 06:12:14;;;;;;;35.70;21.80;;;6.00;99.90;;;;;;5071628;28;20296;-70
2022/01/17 06:14:39;;;;;;;36.10;21.77;;;6.00;99.90;;;;;;5073076;28;20227;-70
2022/01/17 06:17:05;;;;;;;34.77;21.30;;;6.00;99.90;;;;;;5071593;28;20693;-71
2022/01/17 06:19:31;;;;;;;39.10;23.13;;;6.00;99.90;;;;;;5071991;28;20739;-70
2022/01/17 06:21:57;;;;;;;39.63;21.47;;;6.00;99.90;;;;;;5070945;28;20661;-70
2022/01/17 06:24:23;;;;;;;39.20;22.63;;;6.00;99.90;;;;;;5071765;28;20185;-70
2022/01/17 06:26:50;;;;;;;41.67;22.20;;;6.00;99.90;;;;;;5072756;28;20185;-70
2022/01/17 06:29:16;;;;;;;41.47;22.63;;;6.00;99.90;;;;;;5071992;28;20937;-70
2022/01/17 06:31:43;;;;;;;43.50;23.63;;;6.00;99.90;;;;;;5071520;28;20487;-70
2022/01/17 06:34:10;;;;;;;39.83;24.33;;;6.00;99.90;;;;;;5071751;28;20561;-71
2022/01/17 06:36:36;;;;;;;41.33;23.30;;;6.10;99.90;;;;;;5072252;28;20487;-69
2022/01/17 06:39:03;;;;;;;42.77;24.60;;;6.10;99.90;;;;;;5074918;28;20423;-70
2022/01/17 06:41:29;;;;;;;41.00;23.90;;;6.00;99.90;;;;;;5090443;28;20429;-69
2022/01/17 06:43:55;;;;;;;44.57;24.07;;;6.00;99.90;;;;;;5092088;28;20407;-69
2022/01/17 06:46:21;;;;;;;43.50;26.90;;;6.00;99.90;;;;;;5091353;28;20892;-70
2022/01/17 06:48:47;;;;;;;39.00;23.30;;;6.00;99.90;;;;;;5091697;28;20165;-69
2022/01/17 06:51:14;;;;;;;43.77;25.03;;;6.00;99.90;;;;;;5089150;28;20560;-69
2022/01/17 06:53:40;;;;;;;41.73;23.93;;;6.00;99.90;;;;;;5073478;28;20248;-70
2022/01/17 06:56:06;;;;;;;39.87;22.13;;;6.10;99.90;;;;;;5091450;28;20438;-70
2022/01/17 06:58:31;;;;;;;41.27;24.63;;;6.10;99.90;;;;;;5091811;28;20448;-69
2022/01/17 07:00:57;;;;;;;40.73;22.70;;;6.10;99.90;;;;;;5090094;28;20692;-69
2022/01/17 07:03:22;;;;;;;40.63;22.20;;;6.10;99.90;;;;;;5091423;28;20253;-70
2022/01/17 07:05:48;;;;;;;37.00;21.20;;;6.10;99.90;;;;;;5091217;28;20265;-69
2022/01/17 07:08:14;;;;;;;30.70;19.73;;;6.10;99.90;;;;;;5089889;28;20173;-69
2022/01/17 07:10:39;;;;;;;35.80;19.80;;;6.00;99.90;;;;;;5054311;28;20213;-69
2022/01/17 07:13:05;;;;;;;32.13;20.27;;;6.10;99.90;;;;;;5069878;28;20646;-70
2022/01/17 07:15:30;;;;;;;37.33;22.63;;;6.00;99.90;;;;;;5070176;28;20254;-69
2022/01/17 07:17:56;;;;;;;36.50;21.93;;;6.00;99.90;;;;;;5070009;28;20197;-70
2022/01/17 07:20:22;;;;;;;37.20;21.80;;;6.00;99.90;;;;;;5070307;28;20205;-68
2022/01/17 07:22:47;;;;;;;34.80;20.30;;;6.10;99.90;;;;;;5071237;28;20294;-69
2022/01/17 07:25:13;;;;;;;41.60;21.43;;;6.10;99.90;;;;;;5070403;28;20267;-70
2022/01/17 07:27:40;;;;;;;40.77;21.10;;;6.20;99.90;;;;;;5066731;28;20193;-68
2022/01/17 07:30:07;;;;;;;40.83;22.47;;;6.10;99.90;;;;;;5051823;28;20210;-69
2022/01/17 07:32:33;;;;;;;36.40;20.73;;;6.10;99.90;;;;;;5058795;28;20517;-70
2022/01/17 07:34:59;;;;;;;35.60;20.00;;;6.20;99.90;;;;;;5069355;28;20452;-70
2022/01/17 07:37:24;;;;;;;34.83;20.80;;;6.20;99.90;;;;;;5087055;28;20838;-69
2022/01/17 07:39:50;;;;;;;35.13;21.90;;;6.20;99.90;;;;;;5089280;28;20200;-69
2022/01/17 07:42:15;;;;;;;34.10;20.53;;;6.20;99.90;;;;;;5071281;28;20266;-70
2022/01/17 07:44:43;;;;;;;40.90;21.60;;;6.20;99.90;;;;;;5072591;28;20624;-70
2022/01/17 07:47:16;;;;;;;36.70;22.00;;;6.20;99.90;;;;;;5051107;28;20213;-70
2022/01/17 07:49:45;;;;;;;38.37;21.13;;;6.30;99.90;;;;;;5051841;28;20497;-68
2022/01/17 07:52:11;;;;;;;35.27;20.60;;;6.30;99.90;;;;;;5069051;28;20475;-69
2022/01/17 07:54:43;;;;;;;36.37;22.60;;;6.20;99.90;;;;;;5073947;28;20813;-69
2022/01/17 07:57:10;;;;;;;34.00;19.50;;;6.20;99.90;;;;;;5072458;28;20971;-69
2022/01/17 07:59:36;;;;;;;32.57;23.57;;;6.20;99.90;;;;;;5072911;28;20560;-70
2022/01/17 08:02:02;;;;;;;33.70;21.33;;;6.10;99.90;;;;;;5072770;28;20993;-70
2022/01/17 08:04:28;;;;;;;35.20;20.83;;;6.10;99.90;;;;;;5079029;28;20208;-70
2022/01/17 08:06:55;;;;;;;35.70;21.37;;;6.20;99.90;;;;;;5092506;28;20466;-70
2022/01/17 08:09:25;;;;;;;35.50;20.67;;;6.20;99.90;;;;;;5093684;28;20435;-70
2022/01/17 08:11:51;;;;;;;30.70;20.60;;;6.20;99.90;;;;;;5092977;28;20563;-69
2022/01/17 08:14:17;;;;;;;31.77;20.23;;;6.20;99.90;;;;;;5092513;28;20466;-69
2022/01/17 08:16:42;;;;;;;31.57;21.00;;;6.20;99.90;;;;;;5073012;28;20474;-69
2022/01/17 08:19:08;;;;;;;32.87;20.67;;;6.30;99.90;;;;;;5093757;28;20206;-70
2022/01/17 08:21:33;;;;;;;36.20;22.87;;;6.20;99.90;;;;;;5092477;28;20232;-70
2022/01/17 08:24:00;;;;;;;31.50;21.03;;;6.20;99.90;;;;;;5093101;28;20265;-69
2022/01/17 08:26:26;;;;;;;39.40;24.43;;;6.20;99.90;;;;;;5073183;28;20697;-70
2022/01/17 08:28:52;;;;;;;39.07;23.13;;;6.20;99.90;;;;;;5092788;28;20443;-69
2022/01/17 08:31:18;;;;;;;37.30;24.00;;;6.20;99.90;;;;;;5093525;28;20549;-71
2022/01/17 08:33:43;;;;;;;42.60;25.33;;;6.20;99.90;;;;;;5093277;28;20485;-69
2022/01/17 08:36:11;;;;;;;35.50;23.10;;;6.20;99.90;;;;;;5081388;28;20201;-70
2022/01/17 08:38:37;;;;;;;38.93;26.03;;;6.20;99.90;;;;;;5092674;28;20201;-68
2022/01/17 08:41:03;;;;;;;43.33;27.20;;;6.10;99.90;;;;;;5072638;28;20471;-70
2022/01/17 08:43:28;;;;;;;37.40;23.90;;;6.20;99.90;;;;;;5054702;28;20478;-70
2022/01/17 08:45:54;;;;;;;43.73;24.90;;;6.10;99.90;;;;;;5072541;28;20694;-69
2022/01/17 08:48:20;;;;;;;39.93;24.40;;;6.10;99.90;;;;;;5072595;28;20206;-69
2022/01/17 08:50:47;;;;;;;41.57;25.17;;;6.20;99.90;;;;;;5073510;28;21098;-70
2022/01/17 08:53:14;;;;;;;44.63;25.10;;;6.20;99.90;;;;;;5072281;28;20483;-70
2022/01/17 08:55:44;;;;;;;41.43;26.10;;;6.10;99.90;;;;;;5037842;28;20813;-70
2022/01/17 08:58:12;;;;;;;41.80;24.27;;;6.20;99.90;;;;;;5054082;28;20528;-68
2022/01/17 09:00:38;;;;;;;42.77;26.17;;;6.20;99.90;;;;;;5073851;28;20443;-67
2022/01/17 09:03:04;;;;;;;42.37;25.57;;;6.20;99.90;;;;;;5072220;28;20920;-68
2022/01/17 09:05:31;;;;;;;41.73;26.83;;;6.20;99.90;;;;;;5071078;28;20446;-70
2022/01/17 09:07:57;;;;;;;41.50;26.67;;;6.10;99.90;;;;;;5071780;28;20460;-70
2022/01/17 09:10:23;;;;;;;36.10;25.00;;;6.20;99.90;;;;;;5072469;28;20443;-70
2022/01/17 09:12:51;;;;;;;40.77;26.27;;;6.20;99.90;;;;;;5090073;28;20457;-70
2022/01/17 09:15:17;;;;;;;39.87;26.50;;;6.20;99.90;;;;;;5092278;28;20426;-71
2022/01/17 09:17:42;;;;;;;46.60;26.30;;;6.30;99.90;;;;;;5092061;28;20791;-69
2022/01/17 09:20:08;;;;;;;44.37;27.40;;;6.30;99.90;;;;;;5092187;28;20862;-71
2022/01/17 09:22:34;;;;;;;40.90;26.13;;;6.30;99.90;;;;;;5090576;28;20205;-69
2022/01/17 09:25:00;;;;;;;40.40;27.80;;;6.30;99.90;;;;;;5091638;28;20465;-69
2022/01/17 09:27:25;;;;;;;50.17;29.70;;;6.30;99.90;;;;;;5091638;28;20570;-70
2022/01/17 09:29:52;;;;;;;39.27;25.70;;;6.30;99.90;;;;;;5091283;28;20300;-69
2022/01/17 09:32:18;;;;;;;44.50;28.73;;;6.20;99.90;;;;;;5090376;28;20716;-69
2022/01/17 09:34:44;;;;;;;36.47;24.40;;;6.30;99.90;;;;;;5085990;28;20444;-70
2022/01/17 09:37:10;;;;;;;45.73;26.73;;;6.20;99.90;;;;;;5061968;28;20269;-69
2022/01/17 09:39:37;;;;;;;45.33;28.33;;;6.20;99.90;;;;;;5071370;28;20961;-69
2022/01/17 09:42:08;;;;;;;46.80;31.80;;;6.20;99.90;;;;;;5052821;28;20439;-69
2022/01/17 09:44:34;;;;;;;53.17;31.97;;;6.20;99.90;;;;;;5080939;22;20484;-68
2022/01/17 09:47:00;;;;;;;43.93;28.33;;;6.30;99.90;;;;;;5044467;28;20462;-68
2022/01/17 09:49:34;;;;;;;50.17;29.33;;;6.30;99.90;;;;;;5045717;28;20393;-69
2022/01/17 09:54:53;;;;;;;50.80;28.53;;;6.40;99.90;;;;;;5070140;28;20471;-68
2022/01/17 09:57:19;;;;;;;56.40;31.83;;;6.30;99.90;;;;;;5071673;28;20835;-68
2022/01/17 09:59:45;;;;;;;47.93;29.50;;;6.30;99.90;;;;;;5068698;28;20407;-67
2022/01/17 10:02:11;;;;;;;46.47;30.10;;;6.40;99.90;;;;;;5067035;28;20409;-69
2022/01/17 10:04:37;;;;;;;47.87;30.93;;;6.40;99.90;;;;;;5063115;28;20232;-69
2022/01/17 10:07:05;;;;;;;41.87;29.70;;;6.40;99.90;;;;;;5066177;28;20409;-68
2022/01/17 10:09:33;;;;;;;46.07;28.37;;;6.40;99.90;;;;;;5054366;28;20482;-69
2022/01/17 10:12:15;;;;;;;38.63;26.73;;;6.40;99.90;;;;;;5052948;28;20525;-68
2022/01/17 10:14:59;;;;;;;41.00;25.83;;;6.40;99.90;;;;;;5053888;28;20443;-67
2022/01/17 10:17:41;;;;;;;41.97;26.37;;;6.30;99.90;;;;;;5052557;28;20392;-68
2022/01/17 10:20:08;;;;;;;43.63;26.40;;;6.40;99.90;;;;;;5052559;28;20412;-68
2022/01/17 10:22:44;;;;;;;42.77;25.40;;;6.40;99.90;;;;;;5053034;28;20417;-68
2022/01/17 10:30:33;;;;;;;47.53;26.43;;;6.50;99.90;;;;;;5052632;28;20413;-69
2022/01/17 10:35:56;;;;;;;41.33;26.43;;;6.60;99.90;;;;;;5031729;28;20491;-69
2022/01/17 10:38:23;;;;;;;44.13;27.67;;;6.50;99.90;;;;;;5071972;28;20443;-69
2022/01/17 10:40:57;;;;;;;42.93;26.40;;;6.50;99.90;;;;;;5052098;28;20425;-69
2022/01/17 10:43:35;;;;;;;41.20;26.90;;;6.50;99.90;;;;;;5072496;28;20415;-69
2022/01/17 10:46:04;;;;;;;40.90;28.23;;;6.50;99.90;;;;;;5071665;28;20444;-69
2022/01/17 10:48:36;;;;;;;39.57;25.93;;;6.50;99.90;;;;;;5072381;28;20403;-69
2022/01/17 10:51:03;;;;;;;42.87;26.53;;;6.50;99.90;;;;;;5070188;28;20423;-69
2022/01/17 10:53:29;;;;;;;38.20;25.40;;;6.50;99.90;;;;;;5071699;28;20411;-69
2022/01/17 10:55:56;;;;;;;38.87;25.43;;;6.50;99.90;;;;;;5071817;28;21023;-68
2022/01/17 10:58:31;;;;;;;39.63;24.20;;;6.50;99.90;;;;;;5072767;28;20256;-69
2022/01/17 11:01:02;;;;;;;38.90;24.93;;;6.50;99.90;;;;;;5070295;28;20415;-68
2022/01/17 11:03:31;;;;;;;41.37;25.30;;;6.50;99.90;;;;;;5071653;28;20427;-69
2022/01/17 11:06:00;;;;;;;37.03;24.50;;;6.50;99.90;;;;;;5071886;28;20416;-69
2022/01/17 11:08:27;;;;;;;32.70;23.17;;;6.60;99.90;;;;;;5032000;28;20482;-70
2022/01/17 11:10:55;;;;;;;37.50;24.03;;;6.60;99.90;;;;;;5037009;28;20483;-70
2022/01/17 11:13:23;;;;;;;37.00;24.57;;;6.60;99.90;;;;;;5051767;28;20455;-70
2022/01/17 11:15:56;;;;;;;39.77;24.10;;;6.60;99.90;;;;;;5051458;28;20804;-69
2022/01/17 11:18:26;;;;;;;31.80;22.20;;;6.60;99.90;;;;;;5051609;28;20894;-69
2022/01/17 11:20:58;;;;;;;36.23;23.30;;;6.60;99.90;;;;;;5051855;28;20937;-69
2022/01/17 11:23:25;;;;;;;33.97;22.13;;;6.60;99.90;;;;;;5053208;28;20435;-69
2022/01/17 11:25:53;;;;;;;32.47;21.17;;;6.60;99.90;;;;;;5055307;28;20440;-68
2022/01/17 11:28:23;;;;;;;36.67;22.93;;;6.60;99.90;;;;;;5053918;28;20413;-69
2022/01/17 11:30:51;;;;;;;36.90;23.33;;;6.60;99.90;;;;;;5038012;28;20412;-69
2022/01/17 11:33:16;;;;;;;32.83;21.70;;;6.60;99.90;;;;;;5039108;28;20836;-69
2022/01/17 11:35:45;;;;;;;33.83;21.73;;;6.60;99.90;;;;;;5042313;28;20441;-68
2022/01/17 11:38:14;;;;;;;37.67;22.20;;;6.60;99.90;;;;;;5036006;28;20174;-69
2022/01/17 11:40:41;;;;;;;31.77;22.00;;;6.60;99.90;;;;;;5035653;28;20934;-68
2022/01/17 11:43:33;;;;;;;29.10;20.57;;;6.60;99.90;;;;;;5042703;28;20421;-68
2022/01/17 11:46:00;;;;;;;35.07;23.70;;;6.60;99.90;;;;;;5054309;28;20535;-69
2022/01/17 11:48:29;;;;;;;34.40;22.40;;;6.60;99.90;;;;;;5055363;28;21020;-69
2022/01/17 11:51:17;;;;;;;34.70;22.07;;;6.60;99.90;;;;;;5055101;28;20822;-68
2022/01/17 11:53:48;;;;;;;34.00;23.37;;;6.60;99.90;;;;;;5054214;28;20436;-68
2022/01/17 11:56:33;;;;;;;40.23;27.17;;;6.60;99.90;;;;;;5037098;28;21024;-68
2022/01/17 11:58:58;;;;;;;41.43;26.80;;;6.70;99.90;;;;;;5055197;28;20788;-68
2022/01/17 12:01:24;;;;;;;37.80;25.47;;;6.70;99.90;;;;;;5055012;28;20417;-68
2022/01/17 12:03:55;;;;;;;41.07;26.47;;;6.60;99.90;;;;;;5055643;28;20178;-68
2022/01/17 12:06:37;;;;;;;36.63;23.03;;;6.60;99.90;;;;;;5054542;28;20197;-68
2022/01/17 12:09:26;;;;;;;38.60;27.67;;;6.60;99.90;;;;;;5054971;28;20886;-68
2022/01/17 12:12:04;;;;;;;43.63;25.40;;;6.60;99.90;;;;;;5055184;28;21003;-68
2022/01/17 12:14:33;;;;;;;44.40;28.07;;;6.50;99.90;;;;;;5072189;28;20442;-66
2022/01/17 12:17:20;;;;;;;46.63;32.07;;;6.50;99.90;;;;;;5074915;28;20411;-69
2022/01/17 12:20:09;;;;;;;43.57;29.90;;;6.50;99.90;;;;;;5074298;28;20942;-67
2022/01/17 12:22:43;;;;;;;48.80;30.57;;;6.60;99.90;;;;;;5074948;28;20904;-68
2022/01/17 12:25:21;;;;;;;41.23;25.33;;;6.60;99.90;;;;;;5072492;28;20450;-68
2022/01/17 12:27:47;;;;;;;47.13;30.03;;;6.60;99.90;;;;;;5074460;28;20408;-68
2022/01/17 12:30:15;;;;;;;49.03;29.23;;;6.60;99.90;;;;;;5074379;28;20412;-69
2022/01/17 12:32:44;;;;;;;45.27;30.10;;;6.50;99.90;;;;;;5074890;28;20444;-69
2022/01/17 12:35:17;;;;;;;46.30;28.67;;;6.50;99.90;;;;;;5064027;28;20517;-67
2022/01/17 12:38:03;;;;;;;50.83;27.53;;;6.60;99.90;;;;;;5054259;28;20409;-68
2022/01/17 12:40:39;;;;;;;38.27;27.23;;;6.60;99.90;;;;;;5052047;28;20416;-67
2022/01/17 12:43:16;;;;;;;50.67;28.57;;;6.60;99.90;;;;;;5057483;28;20400;-68
2022/01/17 12:45:49;;;;;;;42.47;28.50;;;6.70;99.90;;;;;;5073819;28;20469;-68
2022/01/17 12:48:21;;;;;;;44.80;30.10;;;6.60;99.90;;;;;;5067182;28;20589;-69
2022/01/17 12:50:48;;;;;;;45.90;29.67;;;6.60;99.90;;;;;;5054971;28;20460;-68
2022/01/17 12:53:21;;;;;;;44.40;29.50;;;6.60;99.90;;;;;;5053154;28;20499;-67
2022/01/17 12:55:52;;;;;;;46.33;28.70;;;6.60;99.90;;;;;;5052372;28;20577;-68
2022/01/17 12:58:22;;;;;;;47.30;30.70;;;6.60;99.90;;;;;;5054291;28;20425;-68
2022/01/17 13:01:01;;;;;;;49.53;29.53;;;6.60;99.90;;;;;;5056443;28;20821;-68
2022/01/17 13:03:33;;;;;;;43.57;29.43;;;6.60;99.90;;;;;;5053793;28;20439;-68
2022/01/17 13:05:59;;;;;;;53.17;30.70;;;6.60;99.90;;;;;;5053040;28;20526;-67